createdAt,value
2023-10-06T00:01:48.742Z,2.10
2023-10-06T00:04:23.569Z,3.10
2023-10-06T00:06:54.725Z,2.72
2023-10-06T00:09:29.673Z,2.83
2023-10-06T00:12:00.765Z,3.47
2023-10-06T00:14:42.665Z,2.90
2023-10-06T00:17:17.144Z,2.72
2023-10-06T00:19:53.189Z,4.40
2023-10-06T00:22:27.701Z,3.10
2023-10-06T00:25:00.788Z,12.23
2023-10-06T00:27:33.603Z,6.13
2023-10-06T00:30:12.987Z,5.30
2023-10-06T00:32:43.675Z,6.50
2023-10-06T00:35:17.494Z,6.40
2023-10-06T00:37:47.522Z,7.57
2023-10-06T00:40:20.860Z,8.82
2023-10-06T00:42:54.622Z,8.80
2023-10-06T00:45:25.825Z,5.20
2023-10-06T00:47:56.632Z,5.93
2023-10-06T00:50:33.973Z,8.07
2023-10-06T00:53:05.408Z,7.63
2023-10-06T00:55:35.336Z,6.80
2023-10-06T00:58:05.465Z,8.25
2023-10-06T01:00:38.553Z,8.60
2023-10-06T01:03:16.033Z,7.10
2023-10-06T01:05:49.415Z,5.95
2023-10-06T01:08:22.324Z,7.45
2023-10-06T01:10:52.677Z,9.77
2023-10-06T01:13:23.878Z,10.77
2023-10-06T01:15:57.479Z,6.60
2023-10-06T01:18:28.452Z,6.28
2023-10-06T01:21:10.217Z,7.40
2023-10-06T01:23:42.129Z,8.70
2023-10-06T01:26:14.463Z,9.18
2023-10-06T01:28:46.760Z,8.55
2023-10-06T01:31:16.488Z,7.18
2023-10-06T01:33:46.863Z,7.68
2023-10-06T01:36:22.684Z,6.55
2023-10-06T01:38:56.076Z,8.32
2023-10-06T01:41:27.883Z,10.68
2023-10-06T01:43:57.245Z,6.45
2023-10-06T01:46:27.797Z,7.97
2023-10-06T01:48:57.994Z,6.15
2023-10-06T01:51:28.232Z,6.70
2023-10-06T01:54:00.160Z,6.80
2023-10-06T01:56:32.191Z,9.48
2023-10-06T01:59:02.947Z,10.18
2023-10-06T02:01:32.397Z,8.45
2023-10-06T02:04:01.767Z,6.45
2023-10-06T02:06:31.102Z,6.68
2023-10-06T02:09:07.236Z,5.88
2023-10-06T02:11:37.584Z,8.68
2023-10-06T02:14:07.324Z,6.13
2023-10-06T02:16:36.747Z,6.10
2023-10-06T02:19:10.446Z,8.82
2023-10-06T02:21:45.555Z,6.13
2023-10-06T02:24:18.253Z,7.80
2023-10-06T02:26:51.828Z,7.45
2023-10-06T02:29:24.051Z,6.88
2023-10-06T02:31:53.740Z,8.48
2023-10-06T02:34:30.660Z,9.52
2023-10-06T02:37:01.405Z,10.70
2023-10-06T02:39:35.668Z,8.88
2023-10-06T02:42:10.056Z,6.65
2023-10-06T02:44:42.813Z,8.52
2023-10-06T02:47:15.025Z,7.97
2023-10-06T02:49:50.112Z,7.72
2023-10-06T02:52:22.142Z,7.70
2023-10-06T02:55:07.018Z,8.80
2023-10-06T02:57:36.866Z,11.20
2023-10-06T03:00:21.062Z,8.38
2023-10-06T03:02:56.417Z,9.55
2023-10-06T03:05:31.641Z,9.88
2023-10-06T03:08:02.183Z,8.10
2023-10-06T03:10:44.420Z,7.13
2023-10-06T03:13:14.840Z,9.70
2023-10-06T03:15:47.315Z,8.73
2023-10-06T03:18:17.599Z,8.13
2023-10-06T03:20:51.038Z,9.15
2023-10-06T03:23:28.381Z,7.75
2023-10-06T03:26:04.418Z,10.27
2023-10-06T03:28:38.053Z,10.60
2023-10-06T03:31:24.391Z,8.68
2023-10-06T03:33:56.735Z,8.20
2023-10-06T03:36:38.861Z,9.20
2023-10-06T03:39:12.342Z,10.90
2023-10-06T03:41:48.117Z,10.52
2023-10-06T03:44:26.265Z,6.05
2023-10-06T03:46:56.571Z,9.32
2023-10-06T03:49:27.311Z,7.05
2023-10-06T03:51:57.642Z,11.18
2023-10-06T03:54:27.360Z,8.70
2023-10-06T03:56:59.515Z,7.63
2023-10-06T03:59:28.895Z,9.50
2023-10-06T04:01:58.317Z,7.57
2023-10-06T04:04:27.903Z,9.05
2023-10-06T04:06:59.781Z,8.10
2023-10-06T04:09:32.920Z,7.85
2023-10-06T04:12:05.811Z,5.78
2023-10-06T04:14:36.823Z,7.15
2023-10-06T04:17:07.174Z,7.82
2023-10-06T04:19:36.673Z,6.18
2023-10-06T04:22:06.065Z,7.20
2023-10-06T04:24:35.908Z,7.20
2023-10-06T04:27:09.205Z,8.23
2023-10-06T04:29:41.010Z,7.30
2023-10-06T04:32:14.976Z,6.72
2023-10-06T04:34:44.431Z,8.63
2023-10-06T04:37:14.398Z,7.18
2023-10-06T04:39:43.836Z,6.25
2023-10-06T04:42:15.784Z,7.38
2023-10-06T04:44:49.710Z,6.20
2023-10-06T04:47:19.378Z,6.68
2023-10-06T04:49:48.878Z,5.10
2023-10-06T04:52:18.304Z,5.18
2023-10-06T04:54:49.184Z,7.47
2023-10-06T04:57:21.197Z,6.05
2023-10-06T04:59:50.545Z,4.55
2023-10-06T05:02:20.158Z,5.35
2023-10-06T05:04:49.590Z,6.85
2023-10-06T05:07:19.001Z,5.07
2023-10-06T05:09:48.329Z,6.15
2023-10-06T05:12:17.743Z,5.32
2023-10-06T05:14:50.840Z,5.07
2023-10-06T05:17:23.168Z,7.10
2023-10-06T05:19:52.615Z,7.32
2023-10-06T05:22:22.682Z,5.85
2023-10-06T05:24:53.748Z,6.07
2023-10-06T05:27:23.614Z,5.18
2023-10-06T05:29:56.008Z,7.75
2023-10-06T05:32:25.749Z,6.13
2023-10-06T05:34:55.225Z,8.40
2023-10-06T05:37:24.682Z,4.75
2023-10-06T05:39:54.142Z,5.55
2023-10-06T05:42:23.472Z,5.35
2023-10-06T05:44:57.245Z,4.68
2023-10-06T05:47:27.285Z,5.45
2023-10-06T05:49:59.855Z,4.97
2023-10-06T05:52:29.533Z,4.10
2023-10-06T05:54:58.949Z,6.07
2023-10-06T05:57:28.441Z,6.45
2023-10-06T06:00:00.915Z,6.72
2023-10-06T06:02:31.207Z,6.55
2023-10-06T06:05:00.568Z,7.85
2023-10-06T06:07:30.298Z,7.43
2023-10-06T06:09:59.881Z,6.63
2023-10-06T06:12:29.216Z,9.30
2023-10-06T06:15:03.938Z,7.03
2023-10-06T06:17:35.915Z,7.60
2023-10-06T06:20:17.732Z,7.97
2023-10-06T06:22:55.003Z,6.00
2023-10-06T06:25:25.153Z,5.63
2023-10-06T06:27:55.685Z,8.05
2023-10-06T06:30:27.824Z,6.50
2023-10-06T06:32:58.413Z,4.32
2023-10-06T06:35:29.461Z,5.70
2023-10-06T06:38:01.289Z,5.32
2023-10-06T06:40:32.619Z,7.28
2023-10-06T06:43:02.482Z,5.93
2023-10-06T06:45:41.162Z,6.93
2023-10-06T06:48:14.744Z,6.22
2023-10-06T06:50:46.144Z,4.35
2023-10-06T06:53:15.967Z,4.60
2023-10-06T06:55:45.473Z,6.95
2023-10-06T06:58:18.034Z,2.50
2023-10-06T07:00:50.594Z,4.45
2023-10-06T07:03:20.493Z,6.63
2023-10-06T07:05:51.456Z,5.90
2023-10-06T07:08:20.908Z,6.30
2023-10-06T07:10:54.317Z,5.30
2023-10-06T07:13:25.380Z,3.83
2023-10-06T07:15:57.460Z,4.07
2023-10-06T07:18:27.979Z,3.83
2023-10-06T07:20:57.421Z,5.82
2023-10-06T07:23:26.908Z,5.90
2023-10-06T07:25:56.311Z,4.88
2023-10-06T07:28:25.647Z,7.25
2023-10-06T07:30:57.585Z,4.35
2023-10-06T07:33:27.017Z,5.38
2023-10-06T07:35:56.383Z,6.05
2023-10-06T07:38:25.823Z,4.30
2023-10-06T07:40:55.397Z,5.35
2023-10-06T07:43:24.765Z,6.70
2023-10-06T07:45:57.244Z,5.70
2023-10-06T07:48:26.619Z,4.70
2023-10-06T07:50:55.953Z,4.10
2023-10-06T07:53:26.499Z,3.92
2023-10-06T07:55:55.881Z,4.72
2023-10-06T07:58:29.631Z,5.28
2023-10-06T08:01:03.681Z,5.75
2023-10-06T08:03:33.992Z,2.72
2023-10-06T08:06:04.060Z,6.43
2023-10-06T08:08:34.657Z,3.40
2023-10-06T08:11:05.034Z,5.80
2023-10-06T08:13:35.356Z,5.00
2023-10-06T08:16:08.410Z,6.70
2023-10-06T08:18:38.472Z,5.18
2023-10-06T08:21:07.861Z,5.43
2023-10-06T08:23:37.262Z,2.53
2023-10-06T08:26:09.726Z,3.97
2023-10-06T08:28:39.600Z,2.40
2023-10-06T08:31:17.619Z,4.28
2023-10-06T08:33:47.627Z,5.40
2023-10-06T08:36:17.726Z,2.97
2023-10-06T08:38:48.394Z,5.88
2023-10-06T08:41:19.774Z,3.45
2023-10-06T08:43:52.678Z,3.85
2023-10-06T08:46:24.906Z,5.85
2023-10-06T08:48:55.022Z,3.33
2023-10-06T08:51:27.666Z,2.47
2023-10-06T08:53:59.801Z,3.47
2023-10-06T08:56:29.544Z,3.65
2023-10-06T08:58:58.943Z,6.32
2023-10-06T09:01:33.951Z,6.20
2023-10-06T09:04:10.809Z,3.58
2023-10-06T09:06:41.465Z,4.90
2023-10-06T09:09:13.709Z,6.10
2023-10-06T09:11:43.871Z,2.03
2023-10-06T09:14:13.929Z,3.08
2023-10-06T09:16:58.681Z,3.83
2023-10-06T09:19:28.067Z,6.18
2023-10-06T09:22:08.571Z,5.63
2023-10-06T09:24:38.009Z,4.60
2023-10-06T09:27:26.464Z,3.30
2023-10-06T09:30:06.735Z,5.43
2023-10-06T09:32:38.730Z,6.07
2023-10-06T09:35:22.185Z,5.32
2023-10-06T09:37:52.495Z,5.75
2023-10-06T09:40:24.758Z,3.72
2023-10-06T09:42:55.519Z,3.17
2023-10-06T09:45:26.272Z,4.15
2023-10-06T09:48:00.345Z,2.78
2023-10-06T09:50:30.151Z,3.15
2023-10-06T09:53:04.909Z,2.45
2023-10-06T09:55:36.802Z,3.88
2023-10-06T09:58:08.913Z,4.32
2023-10-06T10:00:41.867Z,2.45
2023-10-06T10:03:14.811Z,2.80
2023-10-06T10:05:45.633Z,6.07
2023-10-06T10:08:15.481Z,5.40
2023-10-06T10:10:49.533Z,5.32
2023-10-06T10:13:54.764Z,3.20
2023-10-06T10:16:38.324Z,3.42
2023-10-06T10:19:14.061Z,3.20
2023-10-06T10:21:44.091Z,5.60
2023-10-06T10:24:53.246Z,6.05
2023-10-06T10:27:13.701Z,4.88
2023-10-06T10:29:43.341Z,2.70
2023-10-06T10:32:17.470Z,4.55
2023-10-06T10:35:16.989Z,5.20
2023-10-06T10:37:56.964Z,2.92
2023-10-06T10:40:28.000Z,3.40
2023-10-06T10:43:03.885Z,3.38
2023-10-06T10:45:36.174Z,2.72
2023-10-06T10:48:14.914Z,4.43
2023-10-06T10:51:07.192Z,3.17
2023-10-06T10:53:39.341Z,4.32
2023-10-06T10:56:14.456Z,4.93
2023-10-06T10:58:57.796Z,3.75
2023-10-06T11:01:31.431Z,4.25
2023-10-06T11:04:22.846Z,5.28
2023-10-06T11:06:56.991Z,4.70
2023-10-06T11:09:38.806Z,4.13
2023-10-06T11:12:24.772Z,3.13
2023-10-06T11:14:56.858Z,3.13
2023-10-06T11:17:28.044Z,4.72
2023-10-06T11:20:10.005Z,3.45
2023-10-06T11:22:43.095Z,3.35
2023-10-06T11:25:15.088Z,4.18
2023-10-06T11:27:44.508Z,3.88
2023-10-06T11:30:16.685Z,4.50
2023-10-06T11:32:46.508Z,3.63
2023-10-06T11:35:16.489Z,2.90
2023-10-06T11:37:49.565Z,2.70
2023-10-06T11:40:19.272Z,5.07
2023-10-06T11:42:48.657Z,3.25
2023-10-06T11:45:28.904Z,3.35
2023-10-06T11:47:59.979Z,3.17
2023-10-06T11:50:33.681Z,3.42
2023-10-06T11:53:06.865Z,5.57
2023-10-06T11:55:40.882Z,3.33
2023-10-06T11:58:11.090Z,3.78
2023-10-06T12:00:44.312Z,2.42
2023-10-06T12:03:15.176Z,4.35
2023-10-06T12:05:57.483Z,2.42
2023-10-06T12:08:29.546Z,5.57
2023-10-06T12:11:05.330Z,4.63
2023-10-06T12:13:38.169Z,5.22
2023-10-06T12:16:15.177Z,4.75
2023-10-06T12:18:45.716Z,5.70
2023-10-06T12:21:15.765Z,4.45
2023-10-06T12:23:48.335Z,3.17
2023-10-06T12:26:18.153Z,4.15
2023-10-06T12:28:49.438Z,4.22
2023-10-06T12:31:18.865Z,2.58
2023-10-06T12:33:48.208Z,3.85
2023-10-06T12:36:20.260Z,3.63
2023-10-06T12:38:52.425Z,3.00
2023-10-06T12:41:21.973Z,5.03
2023-10-06T12:43:51.342Z,2.60
2023-10-06T12:46:21.292Z,4.53
2023-10-06T12:48:50.665Z,4.38
2023-10-06T12:51:20.167Z,3.85
2023-10-06T12:53:52.093Z,4.03
2023-10-06T12:56:22.419Z,4.65
2023-10-06T12:58:51.778Z,5.53
2023-10-06T13:01:21.164Z,2.45
2023-10-06T13:03:50.843Z,3.33
2023-10-06T13:06:20.289Z,5.57
2023-10-06T13:08:52.450Z,3.75
2023-10-06T13:11:25.020Z,3.53
2023-10-06T13:13:54.489Z,4.38
2023-10-06T13:16:24.809Z,3.85
2023-10-06T13:18:54.199Z,5.50
2023-10-06T13:21:23.996Z,4.80
2023-10-06T13:24:01.368Z,2.95
2023-10-06T13:26:43.188Z,3.47
2023-10-06T13:29:13.594Z,6.13
2023-10-06T13:31:43.020Z,4.50
2023-10-06T13:34:12.555Z,3.15
2023-10-06T13:36:42.837Z,3.78
2023-10-06T13:39:17.397Z,5.63
2023-10-06T13:41:46.892Z,4.93
2023-10-06T13:44:16.453Z,3.17
2023-10-06T13:46:45.914Z,3.63
2023-10-06T13:49:15.561Z,1.73
2023-10-06T13:51:47.024Z,4.35
2023-10-06T13:54:19.595Z,1.83
2023-10-06T13:56:49.047Z,3.38
2023-10-06T13:59:19.606Z,3.08
2023-10-06T14:01:49.127Z,3.80
2023-10-06T14:04:22.327Z,3.03
2023-10-06T14:06:51.762Z,5.32
2023-10-06T14:09:25.234Z,4.38
2023-10-06T14:11:55.108Z,4.60
2023-10-06T14:14:56.076Z,4.88
2023-10-06T14:17:33.488Z,4.50
2023-10-06T14:20:11.921Z,3.05
2023-10-06T14:22:41.580Z,5.35
2023-10-06T14:25:15.293Z,3.17
2023-10-06T14:27:44.949Z,4.32
2023-10-06T14:30:15.695Z,4.20
2023-10-06T14:32:56.428Z,2.75
2023-10-06T14:35:35.058Z,3.53
2023-10-06T14:38:38.689Z,3.15
2023-10-06T14:41:24.814Z,2.92
2023-10-06T14:44:08.189Z,3.50
2023-10-06T14:46:39.305Z,2.38
2023-10-06T14:49:14.451Z,3.03
2023-10-06T14:51:45.296Z,4.00
2023-10-06T14:54:15.105Z,7.40
2023-10-06T14:56:47.139Z,4.28
2023-10-06T14:59:16.624Z,3.92
2023-10-06T15:01:46.020Z,4.00
2023-10-06T15:04:16.186Z,3.40
2023-10-06T15:06:45.623Z,4.95
2023-10-06T15:09:19.324Z,5.75
2023-10-06T15:11:52.871Z,4.43
2023-10-06T15:14:26.588Z,5.10
2023-10-06T15:17:01.342Z,3.00
2023-10-06T15:19:36.009Z,5.00
2023-10-06T15:22:10.109Z,4.70
2023-10-06T15:24:41.555Z,6.72
2023-10-06T15:27:13.655Z,3.90
2023-10-06T15:29:43.317Z,4.53
2023-10-06T15:32:16.969Z,3.58
2023-10-06T15:34:46.431Z,2.67
2023-10-06T15:37:15.878Z,2.55
2023-10-06T15:39:47.025Z,4.38
2023-10-06T15:42:18.977Z,4.85
2023-10-06T15:44:48.936Z,9.13
2023-10-06T15:47:18.351Z,3.58
2023-10-06T15:49:47.836Z,2.70
2023-10-06T15:52:17.425Z,2.67
2023-10-06T15:57:18.753Z,3.20
2023-10-06T15:59:48.093Z,6.18
2023-10-06T16:02:19.371Z,3.30
2023-10-06T16:04:52.156Z,5.28
2023-10-06T16:07:22.975Z,3.75
2023-10-06T16:09:53.484Z,3.78
2023-10-06T16:12:25.469Z,4.43
2023-10-06T16:14:54.821Z,4.00
2023-10-06T16:17:24.300Z,3.33
2023-10-06T16:19:53.874Z,3.83
2023-10-06T16:22:23.222Z,2.47
2023-10-06T16:24:53.914Z,4.60
2023-10-06T16:27:25.813Z,2.38
2023-10-06T16:29:55.429Z,2.70
2023-10-06T16:32:24.915Z,3.70
2023-10-06T16:34:54.427Z,3.17
2023-10-06T16:37:23.804Z,3.80
2023-10-06T16:39:53.207Z,3.35
2023-10-06T16:42:22.571Z,4.53
2023-10-06T16:44:54.552Z,2.83
2023-10-06T16:47:24.106Z,4.07
2023-10-06T16:49:54.794Z,3.45
2023-10-06T16:52:26.372Z,3.53
2023-10-06T16:54:56.357Z,3.17
2023-10-06T16:57:25.703Z,5.22
2023-10-06T16:59:57.809Z,5.47
2023-10-06T17:02:27.663Z,3.58
2023-10-06T17:04:57.384Z,2.10
2023-10-06T17:07:26.735Z,2.92
2023-10-06T17:09:56.072Z,3.53
2023-10-06T17:12:25.464Z,2.78
2023-10-06T17:14:58.979Z,2.65
2023-10-06T17:17:28.442Z,1.90
2023-10-06T17:19:57.884Z,4.00
2023-10-06T17:22:27.776Z,5.13
2023-10-06T17:24:58.043Z,5.80
2023-10-06T17:27:27.517Z,2.80
2023-10-06T17:29:59.625Z,3.17
2023-10-06T17:32:29.342Z,3.65
2023-10-06T17:34:58.726Z,3.38
2023-10-06T17:37:31.052Z,3.78
2023-10-06T17:40:00.655Z,6.55
2023-10-06T17:42:31.017Z,5.70
2023-10-06T17:45:04.025Z,4.05
2023-10-06T17:47:33.834Z,3.28
2023-10-06T17:50:03.308Z,4.90
2023-10-06T17:52:32.658Z,2.70
2023-10-06T17:55:02.087Z,2.88
2023-10-06T17:57:31.419Z,6.25
2023-10-06T18:00:03.686Z,4.95
2023-10-06T18:02:33.172Z,4.22
2023-10-06T18:05:06.042Z,4.78
2023-10-06T18:07:35.919Z,4.90
2023-10-06T18:10:09.495Z,3.45
2023-10-06T18:12:42.205Z,4.35
2023-10-06T18:15:16.556Z,4.22
2023-10-06T18:17:48.963Z,3.70
2023-10-06T18:20:18.441Z,4.18
2023-10-06T18:22:47.831Z,4.30
2023-10-06T18:25:17.492Z,1.90
2023-10-06T18:27:47.025Z,3.47
2023-10-06T18:30:19.616Z,5.88
2023-10-06T18:32:49.031Z,4.35
2023-10-06T18:35:18.612Z,5.30
2023-10-06T18:37:48.755Z,4.10
2023-10-06T18:40:19.756Z,4.55
2023-10-06T18:42:49.200Z,3.15
2023-10-06T18:45:21.657Z,4.78
2023-10-06T18:47:51.055Z,4.13
2023-10-06T18:50:23.466Z,3.65
2023-10-06T18:52:54.550Z,2.60
2023-10-06T18:55:24.978Z,2.05
2023-10-06T18:57:54.616Z,4.90
2023-10-06T19:00:27.492Z,3.95
2023-10-06T19:02:58.212Z,3.03
2023-10-06T19:05:27.688Z,5.32
2023-10-06T19:07:59.107Z,3.00
2023-10-06T19:10:28.626Z,4.65
2023-10-06T19:12:57.999Z,4.25
2023-10-06T19:15:29.970Z,3.88
2023-10-06T19:17:59.822Z,2.85
2023-10-06T19:20:29.209Z,6.22
2023-10-06T19:22:58.741Z,7.00
2023-10-06T19:25:29.412Z,4.72
2023-10-06T19:28:00.737Z,3.33
2023-10-06T19:30:32.641Z,5.18
2023-10-06T19:33:02.158Z,4.55
2023-10-06T19:35:31.515Z,6.00
2023-10-06T19:38:01.463Z,4.85
2023-10-06T19:40:30.854Z,3.28
2023-10-06T19:43:00.338Z,4.07
2023-10-06T19:45:32.403Z,4.50
2023-10-06T19:48:02.033Z,3.03
2023-10-06T19:50:31.426Z,4.28
2023-10-06T19:53:01.741Z,3.97
2023-10-06T19:55:31.588Z,3.70
2023-10-06T19:58:01.032Z,5.70
2023-10-06T20:00:33.128Z,3.88
2023-10-06T20:03:02.692Z,6.45
2023-10-06T20:05:35.643Z,3.45
2023-10-06T20:08:06.370Z,4.13
2023-10-06T20:10:37.638Z,7.10
2023-10-06T20:13:08.614Z,5.38
2023-10-06T20:15:40.583Z,4.40
2023-10-06T20:18:11.632Z,7.53
2023-10-06T20:20:42.492Z,6.93
2023-10-06T20:23:11.934Z,4.45
2023-10-06T20:25:42.458Z,4.65
2023-10-06T20:28:12.621Z,5.22
2023-10-06T20:30:44.548Z,6.28
2023-10-06T20:33:13.998Z,7.65
2023-10-06T20:35:43.376Z,4.50
2023-10-06T20:38:12.729Z,6.55
2023-10-06T20:40:43.588Z,5.40
2023-10-06T20:43:12.990Z,6.85
2023-10-06T20:45:44.946Z,5.53
2023-10-06T20:48:14.506Z,7.65
2023-10-06T20:50:46.621Z,9.27
2023-10-06T20:53:16.087Z,4.32
2023-10-06T20:55:45.460Z,3.85
2023-10-06T20:58:15.922Z,3.95
2023-10-06T21:00:47.992Z,8.35
2023-10-06T21:03:17.495Z,6.28
2023-10-06T21:05:49.497Z,5.00
2023-10-06T21:08:18.869Z,6.75
2023-10-06T21:10:48.260Z,4.93
2023-10-06T21:13:17.649Z,6.63
2023-10-06T21:15:49.607Z,5.10
2023-10-06T21:18:19.001Z,4.00
2023-10-06T21:20:48.689Z,4.40
2023-10-06T21:23:18.987Z,4.15
2023-10-06T21:25:48.414Z,6.10
2023-10-06T21:28:17.876Z,7.30
2023-10-06T21:30:50.214Z,4.13
2023-10-06T21:33:19.639Z,4.68
2023-10-06T21:35:49.041Z,6.28
2023-10-06T21:38:18.442Z,5.13
2023-10-06T21:40:48.154Z,7.55
2023-10-06T21:43:18.545Z,6.95
2023-10-06T21:45:50.505Z,5.30
2023-10-06T21:48:20.007Z,4.50
2023-10-06T21:50:52.135Z,4.65
2023-10-06T21:53:21.516Z,5.07
2023-10-06T21:55:51.294Z,9.25
2023-10-06T21:58:20.858Z,5.07
2023-10-06T22:00:57.262Z,5.65
2023-10-06T22:03:26.945Z,5.30
2023-10-06T22:05:56.348Z,8.02
2023-10-06T22:08:25.803Z,3.10
2023-10-06T22:10:57.425Z,5.15
2023-10-06T22:13:29.379Z,7.85
2023-10-06T22:16:04.319Z,9.02
2023-10-06T22:18:33.681Z,5.60
2023-10-06T22:21:03.486Z,4.78
2023-10-06T22:23:32.919Z,4.65
2023-10-06T22:26:02.381Z,6.90
2023-10-06T22:28:33.767Z,5.50
2023-10-06T22:31:07.659Z,5.72
2023-10-06T22:33:38.226Z,5.22
2023-10-06T22:36:08.580Z,5.40
2023-10-06T22:38:38.407Z,10.18
2023-10-06T22:41:07.771Z,5.82
2023-10-06T22:43:39.070Z,5.32
2023-10-06T22:46:11.608Z,5.57
2023-10-06T22:48:42.560Z,5.28
2023-10-06T22:51:13.285Z,6.38
2023-10-06T22:53:42.648Z,7.85
2023-10-06T22:56:13.381Z,4.18
2023-10-06T22:58:42.790Z,4.63
2023-10-06T23:01:18.896Z,6.47
2023-10-06T23:03:48.582Z,3.03
2023-10-06T23:06:18.709Z,7.88
2023-10-06T23:08:48.214Z,4.85
2023-10-06T23:11:19.208Z,3.30
2023-10-06T23:13:48.595Z,6.20
2023-10-06T23:16:20.777Z,5.25
2023-10-06T23:18:50.227Z,4.40
2023-10-06T23:21:19.631Z,4.03
2023-10-06T23:23:50.516Z,8.15
2023-10-06T23:26:19.855Z,4.63
2023-10-06T23:28:50.619Z,3.90
2023-10-06T23:31:25.680Z,4.95
2023-10-06T23:33:56.022Z,4.95
2023-10-06T23:36:25.403Z,8.80
2023-10-06T23:38:54.794Z,5.65
2023-10-06T23:41:25.690Z,4.25
2023-10-06T23:43:55.116Z,6.65
2023-10-06T23:46:27.166Z,5.57
2023-10-06T23:48:59.323Z,4.20
2023-10-06T23:51:28.695Z,4.88
2023-10-06T23:53:59.179Z,5.57
2023-10-06T23:56:32.505Z,6.75
2023-10-06T23:59:11.042Z,3.35
